sensor_id;sensor_type;location;lat;lon;timestamp;P1;durP1;ratioP1;P2;durP2;ratioP2
63906;SDS011;50075;49.484;11.238;2024-02-15T00:01:05;40.08;;;16.38;;
63906;SDS011;50075;49.484;11.238;2024-02-15T00:03:31;51.17;;;16.77;;
63906;SDS011;50075;49.484;11.238;2024-02-15T00:05:56;59.08;;;17.90;;
63906;SDS011;50075;49.484;11.238;2024-02-15T00:08:24;88.38;;;20.75;;
63906;SDS011;50075;49.484;11.238;2024-02-15T00:10:51;56.75;;;19.27;;
63906;SDS011;50075;49.484;11.238;2024-02-15T00:13:18;89.07;;;19.65;;
63906;SDS011;50075;49.484;11.238;2024-02-15T00:15:44;40.38;;;16.63;;
63906;SDS011;50075;49.484;11.238;2024-02-15T00:18:14;57.70;;;20.50;;
63906;SDS011;50075;49.484;11.238;2024-02-15T00:20:39;38.30;;;17.63;;
63906;SDS011;50075;49.484;11.238;2024-02-15T00:23:05;43.50;;;16.33;;
63906;SDS011;50075;49.484;11.238;2024-02-15T00:25:31;104.10;;;20.83;;
63906;SDS011;50075;49.484;11.238;2024-02-15T00:27:57;54.58;;;18.17;;
63906;SDS011;50075;49.484;11.238;2024-02-15T00:30:25;85.07;;;19.67;;
63906;SDS011;50075;49.484;11.238;2024-02-15T00:32:52;64.53;;;18.17;;
63906;SDS011;50075;49.484;11.238;2024-02-15T00:35:17;57.22;;;17.48;;
63906;SDS011;50075;49.484;11.238;2024-02-15T00:37:43;38.90;;;16.52;;
63906;SDS011;50075;49.484;11.238;2024-02-15T00:40:09;55.72;;;17.60;;
63906;SDS011;50075;49.484;11.238;2024-02-15T00:42:35;33.75;;;15.80;;
63906;SDS011;50075;49.484;11.238;2024-02-15T00:45:01;63.33;;;18.80;;
63906;SDS011;50075;49.484;11.238;2024-02-15T00:47:27;94.57;;;20.88;;
63906;SDS011;50075;49.484;11.238;2024-02-15T00:49:53;57.75;;;17.33;;
63906;SDS011;50075;49.484;11.238;2024-02-15T00:52:19;77.75;;;18.60;;
63906;SDS011;50075;49.484;11.238;2024-02-15T00:54:44;36.28;;;15.73;;
63906;SDS011;50075;49.484;11.238;2024-02-15T00:57:10;38.35;;;16.67;;
63906;SDS011;50075;49.484;11.238;2024-02-15T00:59:36;72.80;;;19.23;;
63906;SDS011;50075;49.484;11.238;2024-02-15T01:02:02;51.35;;;15.93;;
63906;SDS011;50075;49.484;11.238;2024-02-15T01:04:27;78.95;;;19.17;;
63906;SDS011;50075;49.484;11.238;2024-02-15T01:06:54;94.03;;;20.75;;
63906;SDS011;50075;49.484;11.238;2024-02-15T01:09:19;78.30;;;20.13;;
63906;SDS011;50075;49.484;11.238;2024-02-15T01:11:45;54.97;;;18.17;;
63906;SDS011;50075;49.484;11.238;2024-02-15T01:14:10;74.35;;;18.80;;
63906;SDS011;50075;49.484;11.238;2024-02-15T01:16:36;70.95;;;19.35;;
63906;SDS011;50075;49.484;11.238;2024-02-15T01:19:01;58.65;;;17.55;;
63906;SDS011;50075;49.484;11.238;2024-02-15T01:21:27;107.18;;;21.20;;
63906;SDS011;50075;49.484;11.238;2024-02-15T01:23:52;73.65;;;18.98;;
63906;SDS011;50075;49.484;11.238;2024-02-15T01:26:19;58.58;;;18.05;;
63906;SDS011;50075;49.484;11.238;2024-02-15T01:28:45;90.90;;;19.52;;
63906;SDS011;50075;49.484;11.238;2024-02-15T01:31:10;60.53;;;19.92;;
63906;SDS011;50075;49.484;11.238;2024-02-15T01:33:36;116.00;;;22.50;;
63906;SDS011;50075;49.484;11.238;2024-02-15T01:36:02;69.53;;;17.80;;
63906;SDS011;50075;49.484;11.238;2024-02-15T01:38:29;93.43;;;21.10;;
63906;SDS011;50075;49.484;11.238;2024-02-15T01:40:54;75.05;;;18.92;;
63906;SDS011;50075;49.484;11.238;2024-02-15T01:43:19;59.20;;;18.23;;
63906;SDS011;50075;49.484;11.238;2024-02-15T01:45:45;60.88;;;18.23;;
63906;SDS011;50075;49.484;11.238;2024-02-15T01:48:12;76.15;;;19.55;;
63906;SDS011;50075;49.484;11.238;2024-02-15T01:50:39;46.08;;;17.70;;
63906;SDS011;50075;49.484;11.238;2024-02-15T01:53:05;63.38;;;18.58;;
63906;SDS011;50075;49.484;11.238;2024-02-15T01:55:33;122.25;;;23.00;;
63906;SDS011;50075;49.484;11.238;2024-02-15T01:57:59;78.43;;;20.08;;
63906;SDS011;50075;49.484;11.238;2024-02-15T02:00:25;96.70;;;22.90;;
63906;SDS011;50075;49.484;11.238;2024-02-15T02:02:51;98.63;;;22.20;;
63906;SDS011;50075;49.484;11.238;2024-02-15T02:05:18;51.92;;;14.60;;
63906;SDS011;50075;49.484;11.238;2024-02-15T02:07:44;56.83;;;18.02;;
63906;SDS011;50075;49.484;11.238;2024-02-15T02:10:10;60.10;;;19.20;;
63906;SDS011;50075;49.484;11.238;2024-02-15T02:12:37;93.35;;;21.50;;
63906;SDS011;50075;49.484;11.238;2024-02-15T02:15:04;73.30;;;20.65;;
63906;SDS011;50075;49.484;11.238;2024-02-15T02:17:31;92.38;;;22.05;;
63906;SDS011;50075;49.484;11.238;2024-02-15T02:19:56;73.03;;;20.13;;
63906;SDS011;50075;49.484;11.238;2024-02-15T02:22:22;72.72;;;19.33;;
63906;SDS011;50075;49.484;11.238;2024-02-15T02:27:29;93.95;;;21.77;;
63906;SDS011;50075;49.484;11.238;2024-02-15T02:29:56;66.60;;;19.35;;
63906;SDS011;50075;49.484;11.238;2024-02-15T02:32:22;66.05;;;20.33;;
63906;SDS011;50075;49.484;11.238;2024-02-15T02:34:48;83.35;;;18.80;;
63906;SDS011;50075;49.484;11.238;2024-02-15T02:37:13;60.10;;;19.70;;
63906;SDS011;50075;49.484;11.238;2024-02-15T02:39:39;89.05;;;21.23;;
63906;SDS011;50075;49.484;11.238;2024-02-15T02:42:04;85.63;;;23.10;;
63906;SDS011;50075;49.484;11.238;2024-02-15T02:44:30;87.15;;;23.77;;
63906;SDS011;50075;49.484;11.238;2024-02-15T02:46:55;64.78;;;20.00;;
63906;SDS011;50075;49.484;11.238;2024-02-15T02:49:20;105.45;;;23.60;;
63906;SDS011;50075;49.484;11.238;2024-02-15T02:51:46;69.68;;;20.20;;
63906;SDS011;50075;49.484;11.238;2024-02-15T02:54:12;51.00;;;19.70;;
63906;SDS011;50075;49.484;11.238;2024-02-15T02:56:40;107.85;;;23.90;;
63906;SDS011;50075;49.484;11.238;2024-02-15T02:59:05;59.88;;;21.02;;
63906;SDS011;50075;49.484;11.238;2024-02-15T03:01:32;98.68;;;26.15;;
63906;SDS011;50075;49.484;11.238;2024-02-15T03:03:57;72.30;;;21.67;;
63906;SDS011;50075;49.484;11.238;2024-02-15T03:06:22;48.25;;;18.85;;
63906;SDS011;50075;49.484;11.238;2024-02-15T03:08:49;84.90;;;23.17;;
63906;SDS011;50075;49.484;11.238;2024-02-15T03:11:19;55.45;;;19.67;;
63906;SDS011;50075;49.484;11.238;2024-02-15T03:13:44;73.28;;;20.90;;
63906;SDS011;50075;49.484;11.238;2024-02-15T03:16:10;79.25;;;22.48;;
63906;SDS011;50075;49.484;11.238;2024-02-15T03:18:35;103.05;;;24.17;;
63906;SDS011;50075;49.484;11.238;2024-02-15T03:21:00;68.10;;;21.63;;
63906;SDS011;50075;49.484;11.238;2024-02-15T03:23:26;81.25;;;22.08;;
63906;SDS011;50075;49.484;11.238;2024-02-15T03:25:51;63.72;;;20.67;;
63906;SDS011;50075;49.484;11.238;2024-02-15T03:28:18;48.72;;;18.83;;
63906;SDS011;50075;49.484;11.238;2024-02-15T03:30:46;72.10;;;20.08;;
63906;SDS011;50075;49.484;11.238;2024-02-15T03:33:11;51.85;;;18.88;;
63906;SDS011;50075;49.484;11.238;2024-02-15T03:35:38;89.82;;;23.90;;
63906;SDS011;50075;49.484;11.238;2024-02-15T03:38:04;69.45;;;20.73;;
63906;SDS011;50075;49.484;11.238;2024-02-15T03:40:30;66.65;;;21.92;;
63906;SDS011;50075;49.484;11.238;2024-02-15T03:42:57;78.20;;;21.15;;
63906;SDS011;50075;49.484;11.238;2024-02-15T03:45:22;63.70;;;20.15;;
63906;SDS011;50075;49.484;11.238;2024-02-15T03:47:49;74.18;;;20.48;;
63906;SDS011;50075;49.484;11.238;2024-02-15T03:50:15;82.53;;;22.35;;
63906;SDS011;50075;49.484;11.238;2024-02-15T03:52:41;96.07;;;23.10;;
63906;SDS011;50075;49.484;11.238;2024-02-15T03:55:06;56.88;;;18.77;;
63906;SDS011;50075;49.484;11.238;2024-02-15T03:57:32;108.60;;;23.88;;
63906;SDS011;50075;49.484;11.238;2024-02-15T03:59:58;69.10;;;20.45;;
63906;SDS011;50075;49.484;11.238;2024-02-15T04:02:25;68.43;;;20.15;;
63906;SDS011;50075;49.484;11.238;2024-02-15T04:04:51;96.55;;;21.83;;
63906;SDS011;50075;49.484;11.238;2024-02-15T04:07:20;63.38;;;20.48;;
63906;SDS011;50075;49.484;11.238;2024-02-15T04:09:47;95.07;;;22.58;;
63906;SDS011;50075;49.484;11.238;2024-02-15T04:12:13;60.17;;;18.38;;
63906;SDS011;50075;49.484;11.238;2024-02-15T04:14:39;98.72;;;23.27;;
63906;SDS011;50075;49.484;11.238;2024-02-15T04:17:11;71.65;;;20.95;;
63906;SDS011;50075;49.484;11.238;2024-02-15T04:19:46;96.35;;;23.60;;
63906;SDS011;50075;49.484;11.238;2024-02-15T04:22:12;55.58;;;19.13;;
63906;SDS011;50075;49.484;11.238;2024-02-15T04:24:38;99.47;;;23.67;;
63906;SDS011;50075;49.484;11.238;2024-02-15T04:27:05;72.38;;;22.33;;
63906;SDS011;50075;49.484;11.238;2024-02-15T04:29:33;101.72;;;23.25;;
63906;SDS011;50075;49.484;11.238;2024-02-15T04:31:59;68.18;;;21.20;;
63906;SDS011;50075;49.484;11.238;2024-02-15T04:34:24;60.95;;;21.45;;
63906;SDS011;50075;49.484;11.238;2024-02-15T04:36:50;92.80;;;22.90;;
63906;SDS011;50075;49.484;11.238;2024-02-15T04:39:18;55.13;;;20.30;;
63906;SDS011;50075;49.484;11.238;2024-02-15T04:41:52;61.75;;;18.38;;
63906;SDS011;50075;49.484;11.238;2024-02-15T04:44:18;72.55;;;19.92;;
63906;SDS011;50075;49.484;11.238;2024-02-15T04:46:48;97.38;;;20.55;;
63906;SDS011;50075;49.484;11.238;2024-02-15T04:49:14;78.13;;;18.95;;
63906;SDS011;50075;49.484;11.238;2024-02-15T04:51:40;99.70;;;20.45;;
63906;SDS011;50075;49.484;11.238;2024-02-15T04:54:09;54.13;;;16.25;;
63906;SDS011;50075;49.484;11.238;2024-02-15T04:56:38;76.22;;;19.85;;
63906;SDS011;50075;49.484;11.238;2024-02-15T04:59:03;62.35;;;17.73;;
63906;SDS011;50075;49.484;11.238;2024-02-15T05:01:29;60.35;;;18.50;;
63906;SDS011;50075;49.484;11.238;2024-02-15T05:03:58;76.40;;;20.77;;
63906;SDS011;50075;49.484;11.238;2024-02-15T05:06:23;66.13;;;19.77;;
63906;SDS011;50075;49.484;11.238;2024-02-15T05:08:49;131.88;;;25.48;;
63906;SDS011;50075;49.484;11.238;2024-02-15T05:11:14;69.82;;;21.70;;
63906;SDS011;50075;49.484;11.238;2024-02-15T05:13:44;110.03;;;25.08;;
63906;SDS011;50075;49.484;11.238;2024-02-15T05:16:10;79.88;;;20.50;;
63906;SDS011;50075;49.484;11.238;2024-02-15T05:18:36;85.35;;;24.70;;
63906;SDS011;50075;49.484;11.238;2024-02-15T05:21:02;64.82;;;22.30;;
63906;SDS011;50075;49.484;11.238;2024-02-15T05:23:28;86.90;;;23.25;;
63906;SDS011;50075;49.484;11.238;2024-02-15T05:25:54;78.80;;;23.70;;
63906;SDS011;50075;49.484;11.238;2024-02-15T05:28:21;54.58;;;20.88;;
63906;SDS011;50075;49.484;11.238;2024-02-15T05:31:07;109.15;;;25.77;;
63906;SDS011;50075;49.484;11.238;2024-02-15T05:33:34;59.88;;;20.83;;
63906;SDS011;50075;49.484;11.238;2024-02-15T05:35:59;84.03;;;24.05;;
63906;SDS011;50075;49.484;11.238;2024-02-15T05:38:24;45.58;;;20.92;;
63906;SDS011;50075;49.484;11.238;2024-02-15T05:40:49;112.80;;;26.70;;
63906;SDS011;50075;49.484;11.238;2024-02-15T05:43:15;69.40;;;23.50;;
63906;SDS011;50075;49.484;11.238;2024-02-15T05:45:42;101.50;;;26.48;;
63906;SDS011;50075;49.484;11.238;2024-02-15T05:48:07;71.45;;;23.30;;
63906;SDS011;50075;49.484;11.238;2024-02-15T05:50:33;61.58;;;21.50;;
63906;SDS011;50075;49.484;11.238;2024-02-15T05:52:59;64.05;;;22.38;;
63906;SDS011;50075;49.484;11.238;2024-02-15T05:55:26;90.18;;;24.88;;
63906;SDS011;50075;49.484;11.238;2024-02-15T05:57:52;113.85;;;27.80;;
63906;SDS011;50075;49.484;11.238;2024-02-15T06:00:18;73.15;;;24.67;;
63906;SDS011;50075;49.484;11.238;2024-02-15T06:02:44;130.60;;;28.30;;
63906;SDS011;50075;49.484;11.238;2024-02-15T06:05:09;62.72;;;23.95;;
63906;SDS011;50075;49.484;11.238;2024-02-15T06:07:35;73.15;;;24.48;;
63906;SDS011;50075;49.484;11.238;2024-02-15T06:10:00;105.15;;;28.63;;
63906;SDS011;50075;49.484;11.238;2024-02-15T06:12:28;73.55;;;26.92;;
63906;SDS011;50075;49.484;11.238;2024-02-15T06:14:57;88.30;;;25.73;;
63906;SDS011;50075;49.484;11.238;2024-02-15T06:17:22;79.40;;;26.85;;
63906;SDS011;50075;49.484;11.238;2024-02-15T06:19:47;106.60;;;27.33;;
63906;SDS011;50075;49.484;11.238;2024-02-15T06:22:13;78.38;;;24.17;;
63906;SDS011;50075;49.484;11.238;2024-02-15T06:24:39;69.03;;;23.90;;
63906;SDS011;50075;49.484;11.238;2024-02-15T06:27:06;64.32;;;24.48;;
63906;SDS011;50075;49.484;11.238;2024-02-15T06:29:31;118.97;;;28.20;;
63906;SDS011;50075;49.484;11.238;2024-02-15T06:32:15;67.15;;;22.67;;
63906;SDS011;50075;49.484;11.238;2024-02-15T06:34:59;99.72;;;34.72;;
63906;SDS011;50075;49.484;11.238;2024-02-15T06:37:43;107.32;;;27.77;;
63906;SDS011;50075;49.484;11.238;2024-02-15T06:40:27;80.55;;;24.98;;
63906;SDS011;50075;49.484;11.238;2024-02-15T06:42:53;118.28;;;28.95;;
63906;SDS011;50075;49.484;11.238;2024-02-15T06:45:19;70.35;;;25.95;;
63906;SDS011;50075;49.484;11.238;2024-02-15T06:47:44;106.63;;;29.65;;
63906;SDS011;50075;49.484;11.238;2024-02-15T06:50:11;83.28;;;28.05;;
63906;SDS011;50075;49.484;11.238;2024-02-15T06:52:37;68.68;;;26.98;;
63906;SDS011;50075;49.484;11.238;2024-02-15T06:55:03;99.13;;;30.17;;
63906;SDS011;50075;49.484;11.238;2024-02-15T06:57:33;97.53;;;29.98;;
63906;SDS011;50075;49.484;11.238;2024-02-15T07:00:00;74.35;;;28.75;;
63906;SDS011;50075;49.484;11.238;2024-02-15T07:02:40;99.63;;;28.38;;
63906;SDS011;50075;49.484;11.238;2024-02-15T07:05:06;78.30;;;25.80;;
63906;SDS011;50075;49.484;11.238;2024-02-15T07:07:32;65.85;;;25.05;;
63906;SDS011;50075;49.484;11.238;2024-02-15T07:09:57;140.02;;;31.13;;
63906;SDS011;50075;49.484;11.238;2024-02-15T07:12:23;70.80;;;26.08;;
63906;SDS011;50075;49.484;11.238;2024-02-15T07:14:48;104.43;;;26.58;;
63906;SDS011;50075;49.484;11.238;2024-02-15T07:17:14;91.63;;;26.40;;
63906;SDS011;50075;49.484;11.238;2024-02-15T07:19:43;70.20;;;26.00;;
63906;SDS011;50075;49.484;11.238;2024-02-15T07:22:09;77.40;;;25.88;;
63906;SDS011;50075;49.484;11.238;2024-02-15T07:24:34;93.43;;;23.40;;
63906;SDS011;50075;49.484;11.238;2024-02-15T07:27:03;77.13;;;26.65;;
63906;SDS011;50075;49.484;11.238;2024-02-15T07:29:29;109.60;;;27.10;;
63906;SDS011;50075;49.484;11.238;2024-02-15T07:31:56;114.03;;;25.58;;
63906;SDS011;50075;49.484;11.238;2024-02-15T07:34:22;69.75;;;25.27;;
63906;SDS011;50075;49.484;11.238;2024-02-15T07:36:47;121.07;;;27.17;;
63906;SDS011;50075;49.484;11.238;2024-02-15T07:39:13;65.82;;;22.77;;
63906;SDS011;50075;49.484;11.238;2024-02-15T07:41:48;93.78;;;26.30;;
63906;SDS011;50075;49.484;11.238;2024-02-15T07:44:14;69.18;;;24.23;;
63906;SDS011;50075;49.484;11.238;2024-02-15T07:46:39;62.65;;;20.65;;
63906;SDS011;50075;49.484;11.238;2024-02-15T07:49:05;77.45;;;26.90;;
63906;SDS011;50075;49.484;11.238;2024-02-15T07:51:31;91.68;;;28.70;;
63906;SDS011;50075;49.484;11.238;2024-02-15T07:53:57;106.20;;;27.02;;
63906;SDS011;50075;49.484;11.238;2024-02-15T07:56:22;78.63;;;26.67;;
63906;SDS011;50075;49.484;11.238;2024-02-15T07:58:48;113.05;;;26.08;;
63906;SDS011;50075;49.484;11.238;2024-02-15T08:01:16;61.60;;;23.02;;
63906;SDS011;50075;49.484;11.238;2024-02-15T08:03:42;82.40;;;25.90;;
63906;SDS011;50075;49.484;11.238;2024-02-15T08:06:14;61.45;;;26.17;;
63906;SDS011;50075;49.484;11.238;2024-02-15T08:08:44;63.90;;;22.38;;
63906;SDS011;50075;49.484;11.238;2024-02-15T08:11:12;71.28;;;24.90;;
63906;SDS011;50075;49.484;11.238;2024-02-15T08:13:44;76.65;;;23.52;;
63906;SDS011;50075;49.484;11.238;2024-02-15T08:16:23;80.35;;;24.55;;
63906;SDS011;50075;49.484;11.238;2024-02-15T08:18:49;96.90;;;25.77;;
63906;SDS011;50075;49.484;11.238;2024-02-15T08:21:24;92.22;;;25.83;;
63906;SDS011;50075;49.484;11.238;2024-02-15T08:23:50;102.75;;;26.85;;
63906;SDS011;50075;49.484;11.238;2024-02-15T08:26:16;65.20;;;23.88;;
63906;SDS011;50075;49.484;11.238;2024-02-15T08:28:42;70.60;;;23.02;;
63906;SDS011;50075;49.484;11.238;2024-02-15T08:31:07;58.50;;;21.92;;
63906;SDS011;50075;49.484;11.238;2024-02-15T08:33:34;68.22;;;22.77;;
63906;SDS011;50075;49.484;11.238;2024-02-15T08:36:01;121.35;;;22.30;;
63906;SDS011;50075;49.484;11.238;2024-02-15T08:38:27;59.20;;;19.98;;
63906;SDS011;50075;49.484;11.238;2024-02-15T08:40:52;106.60;;;20.40;;
63906;SDS011;50075;49.484;11.238;2024-02-15T08:43:18;67.05;;;18.42;;
63906;SDS011;50075;49.484;11.238;2024-02-15T08:45:43;53.60;;;19.92;;
63906;SDS011;50075;49.484;11.238;2024-02-15T08:48:09;66.90;;;20.65;;
63906;SDS011;50075;49.484;11.238;2024-02-15T08:50:35;75.97;;;23.00;;
63906;SDS011;50075;49.484;11.238;2024-02-15T08:53:01;106.97;;;24.05;;
63906;SDS011;50075;49.484;11.238;2024-02-15T08:55:31;68.47;;;20.80;;
63906;SDS011;50075;49.484;11.238;2024-02-15T08:57:56;106.63;;;22.88;;
63906;SDS011;50075;49.484;11.238;2024-02-15T09:00:22;73.15;;;20.58;;
63906;SDS011;50075;49.484;11.238;2024-02-15T09:02:47;81.25;;;22.20;;
63906;SDS011;50075;49.484;11.238;2024-02-15T09:05:13;47.35;;;20.40;;
63906;SDS011;50075;49.484;11.238;2024-02-15T09:07:43;44.50;;;18.83;;
63906;SDS011;50075;49.484;11.238;2024-02-15T09:10:09;69.28;;;20.92;;
63906;SDS011;50075;49.484;11.238;2024-02-15T09:12:36;49.75;;;19.52;;
63906;SDS011;50075;49.484;11.238;2024-02-15T09:15:08;87.88;;;20.13;;
63906;SDS011;50075;49.484;11.238;2024-02-15T09:17:37;47.22;;;17.08;;
63906;SDS011;50075;49.484;11.238;2024-02-15T09:20:09;86.45;;;20.52;;
63906;SDS011;50075;49.484;11.238;2024-02-15T09:22:48;56.28;;;16.65;;
63906;SDS011;50075;49.484;11.238;2024-02-15T09:25:15;42.97;;;15.15;;
63906;SDS011;50075;49.484;11.238;2024-02-15T09:27:41;59.67;;;17.05;;
63906;SDS011;50075;49.484;11.238;2024-02-15T09:30:07;75.53;;;17.52;;
63906;SDS011;50075;49.484;11.238;2024-02-15T09:32:34;55.75;;;17.52;;
63906;SDS011;50075;49.484;11.238;2024-02-15T09:35:00;100.22;;;19.15;;
63906;SDS011;50075;49.484;11.238;2024-02-15T09:37:26;58.47;;;15.27;;
63906;SDS011;50075;49.484;11.238;2024-02-15T09:39:53;59.55;;;16.23;;
63906;SDS011;50075;49.484;11.238;2024-02-15T09:42:20;71.95;;;17.27;;
63906;SDS011;50075;49.484;11.238;2024-02-15T09:44:46;50.30;;;15.52;;
63906;SDS011;50075;49.484;11.238;2024-02-15T09:47:12;44.92;;;14.77;;
63906;SDS011;50075;49.484;11.238;2024-02-15T09:49:38;97.38;;;18.73;;
63906;SDS011;50075;49.484;11.238;2024-02-15T09:52:07;69.30;;;22.02;;
63906;SDS011;50075;49.484;11.238;2024-02-15T09:54:41;68.57;;;18.05;;
63906;SDS011;50075;49.484;11.238;2024-02-15T09:57:09;51.75;;;14.25;;
63906;SDS011;50075;49.484;11.238;2024-02-15T09:59:36;75.80;;;18.60;;
63906;SDS011;50075;49.484;11.238;2024-02-15T10:02:02;124.80;;;42.30;;
63906;SDS011;50075;49.484;11.238;2024-02-15T10:04:28;65.85;;;34.83;;
63906;SDS011;50075;49.484;11.238;2024-02-15T10:06:54;96.55;;;31.83;;
63906;SDS011;50075;49.484;11.238;2024-02-15T10:09:29;94.30;;;38.90;;
63906;SDS011;50075;49.484;11.238;2024-02-15T10:11:56;98.55;;;36.88;;
63906;SDS011;50075;49.484;11.238;2024-02-15T10:14:25;75.38;;;24.50;;
63906;SDS011;50075;49.484;11.238;2024-02-15T10:16:54;82.88;;;27.20;;
63906;SDS011;50075;49.484;11.238;2024-02-15T10:19:21;73.82;;;30.98;;
63906;SDS011;50075;49.484;11.238;2024-02-15T10:21:53;76.97;;;27.08;;
63906;SDS011;50075;49.484;11.238;2024-02-15T10:24:22;58.97;;;25.83;;
63906;SDS011;50075;49.484;11.238;2024-02-15T10:26:59;90.40;;;25.90;;
63906;SDS011;50075;49.484;11.238;2024-02-15T10:29:26;98.43;;;26.30;;
63906;SDS011;50075;49.484;11.238;2024-02-15T10:31:54;67.22;;;17.35;;
63906;SDS011;50075;49.484;11.238;2024-02-15T10:34:27;52.83;;;13.85;;
63906;SDS011;50075;49.484;11.238;2024-02-15T10:36:53;58.83;;;13.52;;
63906;SDS011;50075;49.484;11.238;2024-02-15T10:39:21;85.13;;;15.63;;
63906;SDS011;50075;49.484;11.238;2024-02-15T10:44:21;52.95;;;19.42;;
63906;SDS011;50075;49.484;11.238;2024-02-15T10:46:49;57.72;;;21.27;;
63906;SDS011;50075;49.484;11.238;2024-02-15T10:49:21;50.53;;;14.05;;
63906;SDS011;50075;49.484;11.238;2024-02-15T10:51:52;72.45;;;13.32;;
63906;SDS011;50075;49.484;11.238;2024-02-15T10:54:41;42.22;;;10.65;;
63906;SDS011;50075;49.484;11.238;2024-02-15T10:57:09;65.57;;;10.80;;
63906;SDS011;50075;49.484;11.238;2024-02-15T10:59:37;61.63;;;9.88;;
63906;SDS011;50075;49.484;11.238;2024-02-15T11:02:08;73.63;;;10.30;;
63906;SDS011;50075;49.484;11.238;2024-02-15T11:04:50;43.25;;;18.60;;
63906;SDS011;50075;49.484;11.238;2024-02-15T11:07:21;67.20;;;9.77;;
63906;SDS011;50075;49.484;11.238;2024-02-15T11:09:49;45.80;;;13.25;;
63906;SDS011;50075;49.484;11.238;2024-02-15T11:12:15;34.00;;;7.20;;
63906;SDS011;50075;49.484;11.238;2024-02-15T11:14:43;44.00;;;8.38;;
63906;SDS011;50075;49.484;11.238;2024-02-15T11:17:10;53.22;;;8.25;;
63906;SDS011;50075;49.484;11.238;2024-02-15T11:22:21;46.33;;;8.43;;
63906;SDS011;50075;49.484;11.238;2024-02-15T11:24:52;50.88;;;8.25;;
63906;SDS011;50075;49.484;11.238;2024-02-15T11:27:30;41.08;;;8.63;;
63906;SDS011;50075;49.484;11.238;2024-02-15T11:35:12;58.67;;;9.32;;
63906;SDS011;50075;49.484;11.238;2024-02-15T11:40:17;54.20;;;8.57;;
63906;SDS011;50075;49.484;11.238;2024-02-15T11:42:51;43.95;;;7.57;;
63906;SDS011;50075;49.484;11.238;2024-02-15T11:45:22;44.17;;;7.90;;
63906;SDS011;50075;49.484;11.238;2024-02-15T11:47:52;58.28;;;9.05;;
63906;SDS011;50075;49.484;11.238;2024-02-15T11:50:19;39.78;;;8.10;;
63906;SDS011;50075;49.484;11.238;2024-02-15T11:52:46;43.25;;;7.15;;
63906;SDS011;50075;49.484;11.238;2024-02-15T11:55:18;35.83;;;6.60;;
63906;SDS011;50075;49.484;11.238;2024-02-15T11:57:54;36.63;;;6.43;;
63906;SDS011;50075;49.484;11.238;2024-02-15T12:00:27;38.10;;;7.00;;
63906;SDS011;50075;49.484;11.238;2024-02-15T12:03:13;73.28;;;8.98;;
63906;SDS011;50075;49.484;11.238;2024-02-15T12:05:58;51.42;;;7.90;;
63906;SDS011;50075;49.484;11.238;2024-02-15T12:08:45;42.50;;;7.05;;
63906;SDS011;50075;49.484;11.238;2024-02-15T12:11:30;46.35;;;8.40;;
63906;SDS011;50075;49.484;11.238;2024-02-15T12:14:14;38.90;;;7.50;;
63906;SDS011;50075;49.484;11.238;2024-02-15T12:17:05;52.70;;;8.23;;
63906;SDS011;50075;49.484;11.238;2024-02-15T12:19:51;70.57;;;9.80;;
63906;SDS011;50075;49.484;11.238;2024-02-15T12:22:21;37.92;;;7.10;;
63906;SDS011;50075;49.484;11.238;2024-02-15T12:25:00;39.20;;;7.20;;
63906;SDS011;50075;49.484;11.238;2024-02-15T12:27:31;37.83;;;6.93;;
63906;SDS011;50075;49.484;11.238;2024-02-15T12:29:57;47.65;;;8.02;;
63906;SDS011;50075;49.484;11.238;2024-02-15T12:32:23;64.00;;;8.43;;
63906;SDS011;50075;49.484;11.238;2024-02-15T12:34:53;35.00;;;7.82;;
63906;SDS011;50075;49.484;11.238;2024-02-15T12:37:35;50.47;;;7.93;;
63906;SDS011;50075;49.484;11.238;2024-02-15T12:40:09;56.50;;;8.65;;
63906;SDS011;50075;49.484;11.238;2024-02-15T12:42:39;57.65;;;8.30;;
63906;SDS011;50075;49.484;11.238;2024-02-15T12:45:04;57.92;;;8.70;;
63906;SDS011;50075;49.484;11.238;2024-02-15T12:47:32;34.42;;;6.95;;
63906;SDS011;50075;49.484;11.238;2024-02-15T12:49:57;74.20;;;8.70;;
63906;SDS011;50075;49.484;11.238;2024-02-15T12:52:38;41.42;;;6.70;;
63906;SDS011;50075;49.484;11.238;2024-02-15T12:55:07;73.78;;;9.60;;
63906;SDS011;50075;49.484;11.238;2024-02-15T12:57:37;32.22;;;6.80;;
63906;SDS011;50075;49.484;11.238;2024-02-15T13:00:05;54.05;;;8.80;;
63906;SDS011;50075;49.484;11.238;2024-02-15T13:02:36;38.08;;;7.40;;
63906;SDS011;50075;49.484;11.238;2024-02-15T13:05:03;58.72;;;8.20;;
63906;SDS011;50075;49.484;11.238;2024-02-15T13:07:29;68.90;;;10.70;;
63906;SDS011;50075;49.484;11.238;2024-02-15T13:09:55;49.00;;;7.75;;
63906;SDS011;50075;49.484;11.238;2024-02-15T13:12:21;36.28;;;6.97;;
63906;SDS011;50075;49.484;11.238;2024-02-15T13:14:46;72.45;;;9.82;;
63906;SDS011;50075;49.484;11.238;2024-02-15T13:17:11;57.38;;;9.27;;
63906;SDS011;50075;49.484;11.238;2024-02-15T13:19:37;65.60;;;9.10;;
63906;SDS011;50075;49.484;11.238;2024-02-15T13:22:02;64.40;;;8.65;;
63906;SDS011;50075;49.484;11.238;2024-02-15T13:24:28;46.55;;;7.38;;
63906;SDS011;50075;49.484;11.238;2024-02-15T13:26:53;60.30;;;9.10;;
63906;SDS011;50075;49.484;11.238;2024-02-15T13:29:21;73.28;;;10.30;;
63906;SDS011;50075;49.484;11.238;2024-02-15T13:31:47;36.10;;;7.15;;
63906;SDS011;50075;49.484;11.238;2024-02-15T13:34:14;50.08;;;8.40;;
63906;SDS011;50075;49.484;11.238;2024-02-15T13:36:39;46.45;;;7.20;;
63906;SDS011;50075;49.484;11.238;2024-02-15T13:39:05;67.75;;;9.23;;
63906;SDS011;50075;49.484;11.238;2024-02-15T13:41:30;44.70;;;10.93;;
63906;SDS011;50075;49.484;11.238;2024-02-15T13:43:55;70.28;;;10.82;;
63906;SDS011;50075;49.484;11.238;2024-02-15T13:46:20;44.55;;;8.50;;
63906;SDS011;50075;49.484;11.238;2024-02-15T13:48:46;48.20;;;7.40;;
63906;SDS011;50075;49.484;11.238;2024-02-15T13:51:11;71.57;;;9.23;;
63906;SDS011;50075;49.484;11.238;2024-02-15T13:53:36;39.80;;;7.38;;
63906;SDS011;50075;49.484;11.238;2024-02-15T13:56:02;45.47;;;7.53;;
63906;SDS011;50075;49.484;11.238;2024-02-15T13:58:28;62.38;;;8.98;;
63906;SDS011;50075;49.484;11.238;2024-02-15T14:00:53;38.70;;;7.00;;
63906;SDS011;50075;49.484;11.238;2024-02-15T14:03:18;54.08;;;7.47;;
63906;SDS011;50075;49.484;11.238;2024-02-15T14:05:46;59.88;;;8.75;;
63906;SDS011;50075;49.484;11.238;2024-02-15T14:08:14;33.15;;;6.70;;
63906;SDS011;50075;49.484;11.238;2024-02-15T14:10:40;34.78;;;7.13;;
63906;SDS011;50075;49.484;11.238;2024-02-15T14:13:06;52.95;;;7.85;;
63906;SDS011;50075;49.484;11.238;2024-02-15T14:15:33;36.80;;;6.47;;
63906;SDS011;50075;49.484;11.238;2024-02-15T14:18:02;59.15;;;8.00;;
63906;SDS011;50075;49.484;11.238;2024-02-15T14:20:38;25.23;;;6.13;;
63906;SDS011;50075;49.484;11.238;2024-02-15T14:23:04;49.17;;;8.55;;
63906;SDS011;50075;49.484;11.238;2024-02-15T14:25:31;33.05;;;6.88;;
63906;SDS011;50075;49.484;11.238;2024-02-15T14:27:57;44.47;;;7.93;;
63906;SDS011;50075;49.484;11.238;2024-02-15T14:30:23;52.40;;;8.07;;